
Distance (Route):
Temperature : -48.3°C
Humidity : 2.1%
Pressure : 0hPa| Receiver | Frames | First received | Last received |
|---|---|---|---|
| KE7DJD | 118 | 2026-09-05 23:04:22 | 2026-09-05 23:45:12 |
| Receiver | Date | Latitude | Longitude | Direction | Speed | Altitude | Climb | Temperature | Humidity | Pressure | Voltage | Killtimer | Uptime | BKT | XDATA |
|---|---|---|---|---|---|---|---|---|---|---|---|---|---|---|---|
| KE7DJD | 2026-09-05 23:45:12 | 44.07151 | -115.80656 | 46° | 91km/h | 13023m | 2.9m/s | -48.3°C | 2.1% | 0hPa | 0V | 00:00:00 | 00:00:00 | 00:00:00 | |
| KE7DJD | 2026-09-05 23:44:53 | 44.06754 | -115.81097 | 37° | 93km/h | 12940m | 5.6m/s | -48.2°C | 2.2% | 0hPa | 0V | 00:00:00 | 00:00:00 | 00:00:00 | |
| KE7DJD | 2026-09-05 23:44:32 | 44.06347 | -115.81539 | 44° | 108km/h | 12852m | 6.0m/s | -48.4°C | 2.3% | 0hPa | 0V | 00:00:00 | 00:00:00 | 00:00:00 | |
| KE7DJD | 2026-09-05 23:44:12 | 44.05899 | -115.82012 | 35° | 108km/h | 12766m | 5.0m/s | -48.4°C | 2.4% | 0hPa | 0V | 00:00:00 | 00:00:00 | 00:00:00 | |
| KE7DJD | 2026-09-05 23:43:51 | 44.05430 | -115.82481 | 34° | 106km/h | 12677m | 5.6m/s | -47.9°C | 2.4% | 0hPa | 0V | 00:00:00 | 00:00:00 | 00:00:00 | |
| KE7DJD | 2026-09-05 23:43:30 | 44.04966 | -115.82932 | 32° | 104km/h | 12590m | 5.8m/s | -48.5°C | 2.8% | 0hPa | 0V | 00:00:00 | 00:00:00 | 00:00:00 | |
| KE7DJD | 2026-09-05 23:43:10 | 44.04503 | -115.83357 | 37° | 113km/h | 12504m | 5.4m/s | -48.6°C | 3.1% | 0hPa | 0V | 00:00:00 | 00:00:00 | 00:00:00 | |
| KE7DJD | 2026-09-05 23:42:50 | 44.04027 | -115.83813 | 27° | 108km/h | 12411m | 4.5m/s | -48.8°C | 3.6% | 0hPa | 0V | 00:00:00 | 00:00:00 | 00:00:00 | |
| KE7DJD | 2026-09-05 23:42:30 | 44.03525 | -115.84321 | 37° | 128km/h | 12320m | 5.6m/s | -48.9°C | 3.8% | 0hPa | 0V | 00:00:00 | 00:00:00 | 00:00:00 | |
| KE7DJD | 2026-09-05 23:42:09 | 44.02964 | -115.84917 | 39° | 131km/h | 12218m | 4.3m/s | -48.5°C | 4.1% | 0hPa | 0V | 00:00:00 | 00:00:00 | 00:00:00 | |
| KE7DJD | 2026-09-05 23:41:49 | 44.02385 | -115.85547 | 36° | 144km/h | 12113m | 5.9m/s | -48.4°C | 4.4% | 0hPa | 0V | 00:00:00 | 00:00:00 | 00:00:00 | |
| KE7DJD | 2026-09-05 23:41:29 | 44.01801 | -115.86178 | 37° | 144km/h | 12016m | 5.7m/s | -48.3°C | 4.8% | 0hPa | 0V | 00:00:00 | 00:00:00 | 00:00:00 | |
| KE7DJD | 2026-09-05 23:41:07 | 44.01184 | -115.86842 | 36° | 151km/h | 11916m | 5.2m/s | -48.2°C | 4.9% | 0hPa | 0V | 00:00:00 | 00:00:00 | 00:00:00 | |
| KE7DJD | 2026-09-05 23:40:47 | 44.00569 | -115.87453 | 34° | 146km/h | 11823m | 6.2m/s | -48.5°C | 5.7% | 0hPa | 0V | 00:00:00 | 00:00:00 | 00:00:00 | |
| KE7DJD | 2026-09-05 23:40:27 | 43.99921 | -115.88023 | 34° | 150km/h | 11733m | 5.2m/s | -48.7°C | 6.6% | 0hPa | 0V | 00:00:00 | 00:00:00 | 00:00:00 | |
| KE7DJD | 2026-09-05 23:40:06 | 43.99213 | -115.88613 | 31° | 157km/h | 11643m | 4.6m/s | -49.6°C | 8.8% | 0hPa | 0V | 00:00:00 | 00:00:00 | 00:00:00 | |
| KE7DJD | 2026-09-05 23:39:45 | 43.98511 | -115.89148 | 28° | 144km/h | 11561m | 4.0m/s | -49.8°C | 10.3% | 0hPa | 0V | 00:00:00 | 00:00:00 | 00:00:00 | |
| KE7DJD | 2026-09-05 23:39:24 | 43.97829 | -115.89723 | 32° | 141km/h | 11476m | 3.5m/s | -49.9°C | 12.5% | 0hPa | 0V | 00:00:00 | 00:00:00 | 00:00:00 | |
| KE7DJD | 2026-09-05 23:39:04 | 43.97168 | -115.90331 | 40° | 157km/h | 11404m | 4.8m/s | -50.4°C | 17.1% | 0hPa | 0V | 00:00:00 | 00:00:00 | 00:00:00 | |
| KE7DJD | 2026-09-05 23:38:44 | 43.96469 | -115.90968 | 33° | 170km/h | 11336m | 4.5m/s | -51.4°C | 24.1% | 0hPa | 0V | 00:00:00 | 00:00:00 | 00:00:00 | |
| KE7DJD | 2026-09-05 23:38:23 | 43.95730 | -115.91586 | 33° | 148km/h | 11261m | 5.6m/s | -51.8°C | 26.1% | 0hPa | 0V | 00:00:00 | 00:00:00 | 00:00:00 | |
| KE7DJD | 2026-09-05 23:38:02 | 43.95000 | -115.92207 | 38° | 148km/h | 11182m | 4.3m/s | -52.1°C | 25.3% | 0hPa | 0V | 00:00:00 | 00:00:00 | 00:00:00 | |
| KE7DJD | 2026-09-05 23:37:42 | 43.94296 | -115.92776 | 29° | 164km/h | 11094m | 4.3m/s | -51.9°C | 31.9% | 0hPa | 0V | 00:00:00 | 00:00:00 | 00:00:00 | |
| KE7DJD | 2026-09-05 23:37:21 | 43.93529 | -115.93365 | 32° | 157km/h | 11001m | 5.4m/s | -52.4°C | 39.6% | 0hPa | 0V | 00:00:00 | 00:00:00 | 00:00:00 | |
| KE7DJD | 2026-09-05 23:37:01 | 43.92823 | -115.93922 | 31° | 142km/h | 10907m | 3.7m/s | -51.7°C | 38.0% | 0hPa | 0V | 00:00:00 | 00:00:00 | 00:00:00 | |
| KE7DJD | 2026-09-05 23:36:41 | 43.92111 | -115.94498 | 29° | 155km/h | 10812m | 5.4m/s | -51.0°C | 38.3% | 0hPa | 0V | 00:00:00 | 00:00:00 | 00:00:00 | |
| KE7DJD | 2026-09-05 23:36:19 | 43.91340 | -115.95091 | 30° | 144km/h | 10708m | 5.8m/s | -50.5°C | 39.7% | 0hPa | 0V | 00:00:00 | 00:00:00 | 00:00:00 | |
| KE7DJD | 2026-09-05 23:35:59 | 43.90660 | -115.95630 | 28° | 142km/h | 10611m | 5.3m/s | -49.7°C | 38.6% | 0hPa | 0V | 00:00:00 | 00:00:00 | 00:00:00 | |
| KE7DJD | 2026-09-05 23:35:38 | 43.89956 | -115.96196 | 29° | 161km/h | 10508m | 4.1m/s | -49.2°C | 40.3% | 0hPa | 0V | 00:00:00 | 00:00:00 | 00:00:00 | |
| KE7DJD | 2026-09-05 23:35:18 | 43.89302 | -115.96790 | 38° | 151km/h | 10415m | 4.5m/s | -48.6°C | 42.6% | 0hPa | 0V | 00:00:00 | 00:00:00 | 00:00:00 | |
| KE7DJD | 2026-09-05 23:34:57 | 43.88639 | -115.97381 | 34° | 144km/h | 10317m | 5.7m/s | -47.9°C | 42.5% | 0hPa | 0V | 00:00:00 | 00:00:00 | 00:00:00 | |
| KE7DJD | 2026-09-05 23:34:36 | 43.87983 | -115.97943 | 25° | 150km/h | 10218m | 4.9m/s | -47.2°C | 42.1% | 0hPa | 0V | 00:00:00 | 00:00:00 | 00:00:00 | |
| KE7DJD | 2026-09-05 23:34:17 | 43.87372 | -115.98454 | 32° | 151km/h | 10123m | 4.4m/s | -46.3°C | 40.7% | 0hPa | 0V | 00:00:00 | 00:00:00 | 00:00:00 | |
| KE7DJD | 2026-09-05 23:33:55 | 43.86742 | -115.98987 | 33° | 135km/h | 10027m | 5.7m/s | -45.5°C | 40.8% | 0hPa | 0V | 00:00:00 | 00:00:00 | 00:00:00 | |
| KE7DJD | 2026-09-05 23:33:35 | 43.86124 | -115.99506 | 33° | 146km/h | 9929m | 5.2m/s | -44.6°C | 38.5% | 0hPa | 0V | 00:00:00 | 00:00:00 | 00:00:00 | |
| KE7DJD | 2026-09-05 23:33:14 | 43.85537 | -116.00003 | 32° | 137km/h | 9841m | 5.6m/s | -43.9°C | 38.9% | 0hPa | 0V | 00:00:00 | 00:00:00 | 00:00:00 | |
| KE7DJD | 2026-09-05 23:32:54 | 43.84960 | -116.00493 | 33° | 119km/h | 9754m | 5.1m/s | -43.1°C | 38.9% | 0hPa | 0V | 00:00:00 | 00:00:00 | 00:00:00 | |
| KE7DJD | 2026-09-05 23:32:34 | 43.84352 | -116.00994 | 28° | 141km/h | 9665m | 4.6m/s | -42.5°C | 40.0% | 0hPa | 0V | 00:00:00 | 00:00:00 | 00:00:00 | |
| KE7DJD | 2026-09-05 23:32:13 | 43.83787 | -116.01456 | 38° | 133km/h | 9580m | 4.0m/s | -41.9°C | 44.8% | 0hPa | 0V | 00:00:00 | 00:00:00 | 00:00:00 | |
| KE7DJD | 2026-09-05 23:31:52 | 43.83240 | -116.01923 | 28° | 131km/h | 9489m | 4.2m/s | -41.2°C | 48.0% | 0hPa | 0V | 00:00:00 | 00:00:00 | 00:00:00 | |
| KE7DJD | 2026-09-05 23:31:33 | 43.82732 | -116.02368 | 37° | 113km/h | 9405m | 3.2m/s | -40.4°C | 47.2% | 0hPa | 0V | 00:00:00 | 00:00:00 | 00:00:00 | |
| KE7DJD | 2026-09-05 23:30:52 | 43.81676 | -116.03264 | 33° | 128km/h | 9229m | 4.4m/s | -38.7°C | 39.5% | 0hPa | 0V | 00:00:00 | 00:00:00 | 00:00:00 | |
| KE7DJD | 2026-09-05 23:30:31 | 43.81163 | -116.03697 | 27° | 117km/h | 9140m | 4.2m/s | -38.0°C | 36.2% | 0hPa | 0V | 00:00:00 | 00:00:00 | 00:00:00 | |
| KE7DJD | 2026-09-05 23:30:10 | 43.80640 | -116.04143 | 28° | 117km/h | 9054m | 5.2m/s | -37.4°C | 50.9% | 0hPa | 0V | 00:00:00 | 00:00:00 | 00:00:00 | |
| KE7DJD | 2026-09-05 23:29:49 | 43.80112 | -116.04562 | 31° | 115km/h | 8955m | 5.0m/s | -36.7°C | 48.1% | 0hPa | 0V | 00:00:00 | 00:00:00 | 00:00:00 | |
| KE7DJD | 2026-09-05 23:29:29 | 43.79621 | -116.04969 | 32° | 106km/h | 8868m | 4.5m/s | -36.0°C | 33.1% | 0hPa | 0V | 00:00:00 | 00:00:00 | 00:00:00 | |
| KE7DJD | 2026-09-05 23:29:08 | 43.79121 | -116.05375 | 28° | 104km/h | 8765m | 4.3m/s | -35.6°C | 61.9% | 0hPa | 0V | 00:00:00 | 00:00:00 | 00:00:00 | |
| KE7DJD | 2026-09-05 23:28:48 | 43.78653 | -116.05775 | 30° | 108km/h | 8673m | 4.1m/s | -34.7°C | 55.5% | 0hPa | 0V | 00:00:00 | 00:00:00 | 00:00:00 | |
| KE7DJD | 2026-09-05 23:28:28 | 43.78161 | -116.06184 | 23° | 104km/h | 8575m | 4.9m/s | -34.1°C | 55.4% | 0hPa | 0V | 00:00:00 | 00:00:00 | 00:00:00 | |
| KE7DJD | 2026-09-05 23:28:07 | 43.77697 | -116.06568 | 33° | 117km/h | 8480m | 3.6m/s | -33.2°C | 51.8% | 0hPa | 0V | 00:00:00 | 00:00:00 | 00:00:00 | |
| KE7DJD | 2026-09-05 23:27:46 | 43.77217 | -116.06995 | 39° | 93km/h | 8380m | 3.9m/s | -32.2°C | 48.7% | 0hPa | 0V | 00:00:00 | 00:00:00 | 00:00:00 | |
| KE7DJD | 2026-09-05 23:27:26 | 43.76762 | -116.07383 | 28° | 100km/h | 8288m | 5.7m/s | -31.4°C | 41.0% | 0hPa | 0V | 00:00:00 | 00:00:00 | 00:00:00 | |
| KE7DJD | 2026-09-05 23:27:05 | 43.76277 | -116.07800 | 34° | 106km/h | 8190m | 5.0m/s | -30.5°C | 29.9% | 0hPa | 0V | 00:00:00 | 00:00:00 | 00:00:00 | |
| KE7DJD | 2026-09-05 23:26:44 | 43.75809 | -116.08184 | 23° | 102km/h | 8087m | 5.2m/s | -29.7°C | 29.8% | 0hPa | 0V | 00:00:00 | 00:00:00 | 00:00:00 | |
| KE7DJD | 2026-09-05 23:26:24 | 43.75342 | -116.08528 | 36° | 110km/h | 7989m | 4.7m/s | -28.8°C | 18.9% | 0hPa | 0V | 00:00:00 | 00:00:00 | 00:00:00 | |
| KE7DJD | 2026-09-05 23:26:04 | 43.74887 | -116.08872 | 21° | 100km/h | 7892m | 4.1m/s | -28.0°C | 17.0% | 0hPa | 0V | 00:00:00 | 00:00:00 | 00:00:00 | |
| KE7DJD | 2026-09-05 23:25:43 | 43.74412 | -116.09239 | 30° | 104km/h | 7786m | 4.7m/s | -27.2°C | 15.7% | 0hPa | 0V | 00:00:00 | 00:00:00 | 00:00:00 | |
| KE7DJD | 2026-09-05 23:25:23 | 43.73967 | -116.09579 | 23° | 93km/h | 7691m | 5.4m/s | -26.7°C | 25.5% | 0hPa | 0V | 00:00:00 | 00:00:00 | 00:00:00 | |
| KE7DJD | 2026-09-05 23:25:02 | 43.73488 | -116.09909 | 30° | 113km/h | 7589m | 4.6m/s | -26.2°C | 34.2% | 0hPa | 0V | 00:00:00 | 00:00:00 | 00:00:00 | |
| KE7DJD | 2026-09-05 23:24:42 | 43.73036 | -116.10233 | 36° | 102km/h | 7496m | 4.4m/s | -26.0°C | 51.7% | 0hPa | 0V | 00:00:00 | 00:00:00 | 00:00:00 | |
| KE7DJD | 2026-09-05 23:24:21 | 43.72567 | -116.10561 | 29° | 93km/h | 7399m | 4.2m/s | -25.4°C | 72.0% | 0hPa | 0V | 00:00:00 | 00:00:00 | 00:00:00 | |
| KE7DJD | 2026-09-05 23:24:00 | 43.72088 | -116.10898 | 31° | 113km/h | 7304m | 3.9m/s | -24.7°C | 67.4% | 0hPa | 0V | 00:00:00 | 00:00:00 | 00:00:00 | |
| KE7DJD | 2026-09-05 23:23:39 | 43.71608 | -116.11231 | 32° | 106km/h | 7191m | 5.1m/s | -23.8°C | 61.5% | 0hPa | 0V | 00:00:00 | 00:00:00 | 00:00:00 | |
| KE7DJD | 2026-09-05 23:23:19 | 43.71158 | -116.11570 | 15° | 100km/h | 7091m | 7.2m/s | -22.8°C | 57.7% | 0hPa | 0V | 00:00:00 | 00:00:00 | 00:00:00 | |
| KE7DJD | 2026-09-05 23:22:59 | 43.70714 | -116.11914 | 32° | 111km/h | 6998m | 2.7m/s | -22.1°C | 44.8% | 0hPa | 0V | 00:00:00 | 00:00:00 | 00:00:00 | |
| KE7DJD | 2026-09-05 23:22:39 | 43.70273 | -116.12273 | 37° | 108km/h | 6911m | 3.4m/s | -21.2°C | 40.6% | 0hPa | 0V | 00:00:00 | 00:00:00 | 00:00:00 | |
| KE7DJD | 2026-09-05 23:22:18 | 43.69823 | -116.12634 | 29° | 102km/h | 6818m | 5.3m/s | -20.6°C | 39.3% | 0hPa | 0V | 00:00:00 | 00:00:00 | 00:00:00 | |
| KE7DJD | 2026-09-05 23:21:57 | 43.69373 | -116.12978 | 31° | 106km/h | 6727m | 2.9m/s | -20.0°C | 37.5% | 0hPa | 0V | 00:00:00 | 00:00:00 | 00:00:00 | |
| KE7DJD | 2026-09-05 23:21:37 | 43.68956 | -116.13290 | 28° | 84km/h | 6640m | 5.1m/s | -19.3°C | 34.4% | 0hPa | 0V | 00:00:00 | 00:00:00 | 00:00:00 | |
| KE7DJD | 2026-09-05 23:21:16 | 43.68523 | -116.13614 | 22° | 91km/h | 6553m | 5.4m/s | -18.7°C | 32.0% | 0hPa | 0V | 00:00:00 | 00:00:00 | 00:00:00 | |
| KE7DJD | 2026-09-05 23:20:56 | 43.68113 | -116.13896 | 34° | 113km/h | 6466m | 3.3m/s | -18.2°C | 34.6% | 0hPa | 0V | 00:00:00 | 00:00:00 | 00:00:00 | |
| KE7DJD | 2026-09-05 23:20:35 | 43.67653 | -116.14178 | 17° | 86km/h | 6372m | 4.8m/s | -17.5°C | 37.6% | 0hPa | 0V | 00:00:00 | 00:00:00 | 00:00:00 | |
| KE7DJD | 2026-09-05 23:20:14 | 43.67165 | -116.14461 | 27° | 102km/h | 6283m | 4.8m/s | -17.3°C | 51.9% | 0hPa | 0V | 00:00:00 | 00:00:00 | 00:00:00 | |
| KE7DJD | 2026-09-05 23:19:54 | 43.66698 | -116.14743 | 20° | 117km/h | 6202m | 4.8m/s | -16.9°C | 52.1% | 0hPa | 0V | 00:00:00 | 00:00:00 | 00:00:00 | |
| KE7DJD | 2026-09-05 23:19:33 | 43.66208 | -116.15034 | 33° | 111km/h | 6115m | 3.2m/s | -16.4°C | 53.8% | 0hPa | 0V | 00:00:00 | 00:00:00 | 00:00:00 | |
| KE7DJD | 2026-09-05 23:18:52 | 43.65273 | -116.15640 | 35° | 93km/h | 5927m | 8.0m/s | -15.0°C | 47.5% | 0hPa | 0V | 00:00:00 | 00:00:00 | 00:00:00 | |
| KE7DJD | 2026-09-05 23:18:32 | 43.64786 | -116.15946 | 17° | 89km/h | 5808m | 3.9m/s | -13.9°C | 43.1% | 0hPa | 0V | 00:00:00 | 00:00:00 | 00:00:00 | |
| KE7DJD | 2026-09-05 23:18:10 | 43.64345 | -116.16282 | 37° | 99km/h | 5695m | 4.7m/s | -13.1°C | 38.1% | 0hPa | 0V | 00:00:00 | 00:00:00 | 00:00:00 | |
| KE7DJD | 2026-09-05 23:17:49 | 43.63940 | -116.16591 | 25° | 82km/h | 5578m | 4.5m/s | -12.3°C | 31.8% | 0hPa | 0V | 00:00:00 | 00:00:00 | 00:00:00 | |
| KE7DJD | 2026-09-05 23:17:28 | 43.63582 | -116.16912 | 41° | 78km/h | 5468m | 4.4m/s | -11.3°C | 28.2% | 0hPa | 0V | 00:00:00 | 00:00:00 | 00:00:00 | |
| KE7DJD | 2026-09-05 23:17:17 | 43.63244 | -116.17234 | 38° | 80km/h | 5339m | 7.9m/s | -10.6°C | 22.1% | 0hPa | 0V | 00:00:00 | 00:00:00 | 00:00:00 | |
| KE7DJD | 2026-09-05 23:16:47 | 43.62907 | -116.17456 | 16° | 82km/h | 5217m | 4.8m/s | -9.8°C | 15.0% | 0hPa | 0V | 00:00:00 | 00:00:00 | 00:00:00 | |
| KE7DJD | 2026-09-05 23:16:26 | 43.62603 | -116.17651 | 31° | 66km/h | 5087m | 6.4m/s | -8.8°C | 13.7% | 0hPa | 0V | 00:00:00 | 00:00:00 | 00:00:00 | |
| KE7DJD | 2026-09-05 23:16:06 | 43.62303 | -116.17843 | 8° | 73km/h | 4969m | 8.5m/s | -7.9°C | 11.5% | 0hPa | 0V | 00:00:00 | 00:00:00 | 00:00:00 | |
| KE7DJD | 2026-09-05 23:15:45 | 43.61966 | -116.17970 | 5° | 57km/h | 4854m | 4.7m/s | -7.2°C | 9.2% | 0hPa | 0V | 00:00:00 | 00:00:00 | 00:00:00 | |
| KE7DJD | 2026-09-05 23:15:25 | 43.61605 | -116.18053 | 30° | 64km/h | 4738m | 5.8m/s | -6.6°C | 13.7% | 0hPa | 0V | 00:00:00 | 00:00:00 | 00:00:00 | |
| KE7DJD | 2026-09-05 23:15:03 | 43.61221 | -116.18202 | 24° | 91km/h | 4647m | 4.2m/s | -7.5°C | 47.2% | 0hPa | 0V | 00:00:00 | 00:00:00 | 00:00:00 | |
| KE7DJD | 2026-09-05 23:14:42 | 43.60874 | -116.18317 | 3° | 64km/h | 4539m | 4.2m/s | -6.8°C | 66.8% | 0hPa | 0V | 00:00:00 | 00:00:00 | 00:00:00 | |
| KE7DJD | 2026-09-05 23:14:21 | 43.60500 | -116.18409 | 12° | 84km/h | 4426m | 5.1m/s | -5.9°C | 71.1% | 0hPa | 0V | 00:00:00 | 00:00:00 | 00:00:00 | |
| KE7DJD | 2026-09-05 23:14:02 | 43.60164 | -116.18536 | 22° | 66km/h | 4312m | 8.2m/s | -5.2°C | 77.9% | 0hPa | 0V | 00:00:00 | 00:00:00 | 00:00:00 | |
| KE7DJD | 2026-09-05 23:13:40 | 43.59792 | -116.18694 | 10° | 73km/h | 4201m | 5.8m/s | -4.5°C | 82.8% | 0hPa | 0V | 00:00:00 | 00:00:00 | 00:00:00 | |
| KE7DJD | 2026-09-05 23:13:19 | 43.59432 | -116.18830 | 13° | 82km/h | 4094m | 6.0m/s | -3.5°C | 70.1% | 0hPa | 0V | 00:00:00 | 00:00:00 | 00:00:00 | |
| KE7DJD | 2026-09-05 23:12:58 | 43.59095 | -116.18995 | 28° | 51km/h | 3988m | 5.4m/s | -2.5°C | 64.9% | 0hPa | 0V | 00:00:00 | 00:00:00 | 00:00:00 | |
| KE7DJD | 2026-09-05 23:12:37 | 43.58787 | -116.19160 | 20° | 68km/h | 3880m | 6.0m/s | -1.6°C | 62.3% | 0hPa | 0V | 00:00:00 | 00:00:00 | 00:00:00 | |
| KE7DJD | 2026-09-05 23:12:17 | 43.58533 | -116.19324 | 10° | 42km/h | 3770m | 4.4m/s | -0.8°C | 63.1% | 0hPa | 0V | 00:00:00 | 00:00:00 | 00:00:00 | |
| KE7DJD | 2026-09-05 23:11:56 | 43.58239 | -116.19507 | 28° | 40km/h | 3654m | 6.8m/s | -0.1°C | 63.4% | 0hPa | 0V | 00:00:00 | 00:00:00 | 00:00:00 | |
| KE7DJD | 2026-09-05 23:11:36 | 43.57995 | -116.19670 | 39° | 51km/h | 3539m | 5.0m/s | 0.9°C | 62.8% | 0hPa | 0V | 00:00:00 | 00:00:00 | 00:00:00 | |
| KE7DJD | 2026-09-05 23:11:15 | 43.57732 | -116.19780 | 4° | 38km/h | 3426m | 5.0m/s | 1.6°C | 65.8% | 0hPa | 0V | 00:00:00 | 00:00:00 | 00:00:00 | |
| KE7DJD | 2026-09-05 23:10:55 | 43.57516 | -116.19922 | 15° | 40km/h | 3311m | 7.7m/s | 2.3°C | 67.5% | 0hPa | 0V | 00:00:00 | 00:00:00 | 00:00:00 | |
| KE7DJD | 2026-09-05 23:10:34 | 43.57323 | -116.20042 | 25° | 20km/h | 3188m | 4.8m/s | 3.4°C | 61.1% | 0hPa | 0V | 00:00:00 | 00:00:00 | 00:00:00 | |
| KE7DJD | 2026-09-05 23:10:13 | 43.57162 | -116.20148 | 21° | 35km/h | 3075m | 6.2m/s | 4.3°C | 63.4% | 0hPa | 0V | 00:00:00 | 00:00:00 | 00:00:00 | |
| KE7DJD | 2026-09-05 23:09:53 | 43.57018 | -116.20237 | 58° | 37km/h | 2979m | 3.2m/s | 5.0°C | 66.4% | 0hPa | 0V | 00:00:00 | 00:00:00 | 00:00:00 | |
| KE7DJD | 2026-09-05 23:09:32 | 43.56895 | -116.20335 | 65° | 24km/h | 2872m | 5.9m/s | 5.9°C | 64.3% | 0hPa | 0V | 00:00:00 | 00:00:00 | 00:00:00 | |
| KE7DJD | 2026-09-05 23:09:11 | 43.56800 | -116.20401 | 1° | 22km/h | 2758m | 3.5m/s | 6.8°C | 64.6% | 0hPa | 0V | 00:00:00 | 00:00:00 | 00:00:00 | |
| KE7DJD | 2026-09-05 23:08:51 | 43.56721 | -116.20464 | 80° | 16km/h | 2659m | 4.4m/s | 7.3°C | 65.3% | 0hPa | 0V | 00:00:00 | 00:00:00 | 00:00:00 | |
| KE7DJD | 2026-09-05 23:08:30 | 43.56658 | -116.20522 | 356° | 27km/h | 2565m | 3.9m/s | 8.0°C | 63.5% | 0hPa | 0V | 00:00:00 | 00:00:00 | 00:00:00 | |
| KE7DJD | 2026-09-05 23:08:10 | 43.56622 | -116.20581 | 36° | 22km/h | 2465m | 5.6m/s | 8.9°C | 61.1% | 0hPa | 0V | 00:00:00 | 00:00:00 | 00:00:00 | |
| KE7DJD | 2026-09-05 23:07:50 | 43.56590 | -116.20648 | 270° | 4km/h | 2362m | 3.7m/s | 9.7°C | 61.6% | 0hPa | 0V | 00:00:00 | 00:00:00 | 00:00:00 | |
| KE7DJD | 2026-09-05 23:07:29 | 43.56554 | -116.20697 | 50° | 5km/h | 2260m | 2.9m/s | 10.5°C | 59.5% | 0hPa | 0V | 00:00:00 | 00:00:00 | 00:00:00 | |
| KE7DJD | 2026-09-05 23:07:09 | 43.56531 | -116.20753 | 167° | 13km/h | 2150m | 2.4m/s | 11.3°C | 57.2% | 0hPa | 0V | 00:00:00 | 00:00:00 | 00:00:00 | |
| KE7DJD | 2026-09-05 23:06:47 | 43.56500 | -116.20783 | 302° | 9km/h | 2049m | 5.6m/s | 12.2°C | 55.0% | 0hPa | 0V | 00:00:00 | 00:00:00 | 00:00:00 | |
| KE7DJD | 2026-09-05 23:06:27 | 43.56455 | -116.20812 | 350° | 20km/h | 1939m | 4.8m/s | 13.0°C | 53.7% | 0hPa | 0V | 00:00:00 | 00:00:00 | 00:00:00 | |
| KE7DJD | 2026-09-05 23:06:05 | 43.56432 | -116.20830 | 99° | 16km/h | 1832m | 7.7m/s | 13.6°C | 55.4% | 0hPa | 0V | 00:00:00 | 00:00:00 | 00:00:00 | |
| KE7DJD | 2026-09-05 23:05:45 | 43.56453 | -116.20866 | 26° | 11km/h | 1730m | 5.5m/s | 14.5°C | 53.3% | 0hPa | 0V | 00:00:00 | 00:00:00 | 00:00:00 | |
| KE7DJD | 2026-09-05 23:05:23 | 43.56451 | -116.20850 | 255° | 18km/h | 1613m | 6.9m/s | 15.7°C | 50.2% | 0hPa | 0V | 00:00:00 | 00:00:00 | 00:00:00 | |
| KE7DJD | 2026-09-05 23:05:03 | 43.56448 | -116.20831 | 307° | 7km/h | 1508m | 6.8m/s | 16.7°C | 0% | 0hPa | 0V | 00:00:00 | 00:00:00 | 00:00:00 | |
| KE7DJD | 2026-09-05 23:04:42 | 43.56465 | -116.20824 | 133° | 24km/h | 1408m | 4.6m/s | 0°C | 0% | 0hPa | 0V | 00:00:00 | 00:00:00 | 00:00:00 | |
| KE7DJD | 2026-09-05 23:04:22 | 43.56498 | -116.20850 | 159° | 29km/h | 1291m | 6.0m/s | 0°C | 0% | 0hPa | 0V | 00:00:00 | 00:00:00 | 00:00:00 |